createdAt,value
2019-01-04T00:01:55.296Z,0.50
2019-01-04T00:07:00.348Z,0.50
2019-01-04T00:12:05.344Z,0.50
2019-01-04T00:17:10.433Z,0.50
2019-01-04T00:22:15.407Z,0.60
2019-01-04T00:27:20.436Z,0.70
2019-01-04T00:32:25.407Z,0.90
2019-01-04T00:37:30.482Z,1.00
2019-01-04T00:42:35.565Z,1.10
2019-01-04T00:47:40.665Z,1.20
2019-01-04T00:52:45.715Z,1.30
2019-01-04T00:58:08.618Z,1.40
2019-01-04T01:03:50.175Z,1.50
2019-01-04T01:09:39.483Z,1.60
2019-01-04T01:15:20.672Z,1.70
2019-01-04T01:21:20.972Z,1.70
2019-01-04T01:27:05.089Z,1.80
2019-01-04T01:32:59.227Z,1.90
2019-01-04T01:38:50.221Z,2.10
2019-01-04T01:44:54.710Z,2.20
2019-01-04T01:50:36.844Z,2.40
2019-01-04T01:55:41.855Z,2.50
2019-01-04T02:00:46.855Z,2.70
2019-01-04T02:05:51.879Z,2.80
2019-01-04T02:10:56.874Z,2.90
2019-01-04T02:16:01.872Z,2.90
2019-01-04T02:21:06.860Z,3.00
2019-01-04T02:26:11.899Z,3.20
2019-01-04T02:31:16.881Z,3.30
2019-01-04T02:36:21.982Z,3.40
2019-01-04T02:41:27.012Z,3.50
2019-01-04T02:46:32.010Z,3.60
2019-01-04T02:51:37.017Z,3.70
2019-01-04T02:56:42.003Z,3.70
2019-01-04T03:01:47.039Z,3.80
2019-01-04T03:06:52.051Z,3.80
2019-01-04T03:11:57.103Z,3.80
2019-01-04T03:17:02.148Z,3.90
2019-01-04T03:22:07.146Z,3.90
2019-01-04T03:27:12.146Z,3.80
2019-01-04T03:32:17.269Z,3.70
2019-01-04T03:37:22.328Z,3.60
2019-01-04T03:42:27.418Z,3.50
2019-01-04T03:47:32.463Z,3.40
2019-01-04T03:52:37.467Z,3.40
2019-01-04T03:57:42.487Z,3.40
2019-01-04T04:02:47.578Z,3.40
2019-01-04T04:07:52.580Z,3.50
2019-01-04T04:12:57.589Z,3.50
2019-01-04T04:18:02.582Z,3.50
2019-01-04T04:23:07.583Z,3.50
2019-01-04T04:28:12.576Z,3.60
2019-01-04T04:33:17.574Z,3.60
2019-01-04T04:38:22.636Z,3.60
2019-01-04T04:43:27.672Z,3.70
2019-01-04T04:48:32.684Z,3.80
2019-01-04T04:53:37.830Z,3.90
2019-01-04T04:58:42.829Z,3.90
2019-01-04T05:03:48.714Z,4.00
2019-01-04T05:08:53.749Z,4.00
2019-01-04T05:13:58.737Z,4.00
2019-01-04T05:19:03.745Z,4.00
2019-01-04T05:24:08.777Z,4.00
2019-01-04T05:29:13.839Z,3.90
2019-01-04T05:34:19.314Z,3.90
2019-01-04T05:39:24.984Z,3.90
2019-01-04T05:44:29.987Z,3.90
2019-01-04T05:49:35.331Z,4.10
2019-01-04T05:54:40.345Z,4.10
2019-01-04T05:59:45.440Z,4.20
2019-01-04T06:04:50.471Z,4.30
2019-01-04T06:09:55.788Z,4.40
2019-01-04T06:15:00.850Z,4.40
2019-01-04T06:20:06.935Z,4.40
2019-01-04T06:25:11.928Z,4.40
2019-01-04T06:30:17.048Z,4.40
2019-01-04T06:35:22.621Z,4.40
2019-01-04T06:40:27.888Z,4.40
2019-01-04T06:45:32.957Z,4.40
2019-01-04T06:50:38.428Z,4.40
2019-01-04T06:55:55.179Z,4.40
2019-01-04T07:01:00.276Z,4.40
2019-01-04T07:06:05.386Z,4.40
2019-01-04T07:11:10.472Z,4.40
2019-01-04T07:16:15.515Z,4.40
2019-01-04T07:21:20.588Z,4.50
2019-01-04T07:26:26.181Z,4.40
2019-01-04T07:31:32.553Z,4.40
2019-01-04T07:36:39.748Z,4.40
2019-01-04T07:41:45.107Z,4.40
2019-01-04T07:46:52.854Z,4.40
2019-01-04T07:51:58.185Z,4.40
2019-01-04T07:57:03.417Z,4.40
2019-01-04T08:02:52.498Z,4.40
2019-01-04T08:07:58.507Z,4.40
2019-01-04T08:13:04.278Z,4.40
2019-01-04T08:18:10.500Z,4.40
2019-01-04T08:23:15.764Z,4.40
2019-01-04T08:28:21.918Z,4.50
2019-01-04T08:33:27.326Z,4.60
2019-01-04T08:38:33.124Z,4.60
2019-01-04T08:43:39.574Z,4.60
2019-01-04T08:48:44.795Z,4.60
2019-01-04T08:53:57.814Z,4.70
2019-01-04T08:59:03.222Z,4.80
2019-01-04T09:04:09.063Z,4.80
2019-01-04T09:09:14.323Z,4.80
2019-01-04T09:14:19.647Z,4.90
2019-01-04T09:19:25.065Z,5.00
2019-01-04T09:24:30.109Z,5.00
2019-01-04T09:29:36.931Z,5.00
2019-01-04T09:34:41.941Z,5.00
2019-01-04T09:39:46.935Z,5.00
2019-01-04T09:44:51.919Z,5.00
2019-01-04T09:49:56.968Z,5.00
2019-01-04T09:55:01.972Z,5.00
2019-01-04T10:00:10.645Z,5.00
2019-01-04T10:05:15.680Z,5.00
2019-01-04T10:10:20.676Z,5.00
2019-01-04T10:15:25.688Z,5.00
2019-01-04T10:20:30.678Z,5.10
2019-01-04T10:25:35.695Z,5.30
2019-01-04T10:30:40.680Z,5.40
2019-01-04T10:35:45.682Z,5.50
2019-01-04T10:40:50.672Z,5.60
2019-01-04T10:45:55.651Z,5.50
2019-01-04T10:51:00.685Z,5.50
2019-01-04T10:56:05.728Z,5.60
2019-01-04T11:01:10.853Z,5.50
2019-01-04T11:06:15.856Z,5.50
2019-01-04T11:11:20.872Z,5.50
2019-01-04T11:16:25.887Z,5.60
2019-01-04T11:21:30.889Z,5.60
2019-01-04T11:26:57.143Z,5.70
2019-01-04T11:32:40.367Z,5.70
2019-01-04T11:38:41.303Z,5.70
2019-01-04T11:44:20.763Z,5.70
2019-01-04T11:49:34.666Z,5.80
2019-01-04T11:54:39.701Z,5.70
2019-01-04T11:59:44.694Z,5.70
2019-01-04T12:04:49.715Z,5.60
2019-01-04T12:09:54.717Z,5.70
2019-01-04T12:14:59.720Z,5.70
2019-01-04T12:20:05.732Z,5.80
2019-01-04T12:25:10.709Z,5.80
2019-01-04T12:30:15.696Z,5.80
2019-01-04T12:35:20.692Z,5.90
2019-01-04T12:40:25.712Z,5.80
2019-01-04T12:45:30.695Z,5.70
2019-01-04T12:50:35.683Z,5.60
2019-01-04T12:55:40.691Z,5.50
2019-01-04T13:00:45.667Z,5.40
2019-01-04T13:05:50.681Z,5.30
2019-01-04T13:10:55.720Z,5.30
2019-01-04T13:16:00.708Z,5.30
2019-01-04T13:21:05.808Z,5.40
2019-01-04T13:26:10.813Z,5.50
2019-01-04T13:31:15.815Z,5.50
2019-01-04T13:36:20.852Z,5.60
2019-01-04T13:41:25.907Z,5.70
2019-01-04T13:46:30.963Z,5.60
2019-01-04T13:51:35.965Z,5.60
2019-01-04T13:56:40.979Z,5.60
2019-01-04T14:01:45.983Z,5.60
2019-01-04T14:06:51.203Z,5.50
2019-01-04T14:11:56.199Z,5.50
2019-01-04T14:17:01.257Z,5.40
2019-01-04T14:22:06.200Z,5.40
2019-01-04T14:27:12.667Z,5.40
2019-01-04T14:32:17.786Z,5.30
2019-01-04T14:37:23.425Z,5.40
2019-01-04T14:42:28.504Z,5.40
2019-01-04T14:47:36.973Z,5.40
2019-01-04T14:52:43.224Z,5.50
2019-01-04T14:57:48.544Z,5.40
2019-01-04T15:02:53.526Z,5.50
2019-01-04T15:07:58.707Z,5.50
2019-01-04T15:13:03.679Z,5.50
2019-01-04T15:18:08.683Z,5.50
2019-01-04T15:23:13.675Z,5.50
2019-01-04T15:28:18.651Z,5.50
2019-01-04T15:33:23.623Z,5.50
2019-01-04T15:38:28.604Z,5.50
2019-01-04T15:43:33.903Z,5.50
2019-01-04T15:48:38.953Z,5.50
2019-01-04T15:53:44.196Z,5.60
2019-01-04T15:58:49.177Z,5.50
2019-01-04T16:03:55.961Z,5.60
2019-01-04T16:09:01.175Z,5.60
2019-01-04T16:14:07.623Z,5.60
2019-01-04T16:19:12.598Z,5.60
2019-01-04T16:24:17.582Z,5.60
2019-01-04T16:29:22.569Z,5.60
2019-01-04T16:34:27.538Z,5.70
2019-01-04T16:39:32.510Z,5.60
2019-01-04T16:44:37.502Z,5.60
2019-01-04T16:49:42.540Z,5.60
2019-01-04T16:54:47.534Z,5.60
2019-01-04T16:59:52.523Z,5.60
2019-01-04T17:04:57.522Z,5.70
2019-01-04T17:10:02.500Z,5.60
2019-01-04T17:15:08.097Z,5.70
2019-01-04T17:20:13.079Z,5.70
2019-01-04T17:25:18.064Z,5.80
2019-01-04T17:30:23.062Z,5.80
2019-01-04T17:35:28.046Z,5.90
2019-01-04T17:40:33.042Z,5.90
2019-01-04T17:45:38.074Z,5.90
2019-01-04T17:50:43.073Z,6.00
2019-01-04T17:55:48.077Z,6.00
2019-01-04T18:00:53.062Z,6.00
2019-01-04T18:05:58.031Z,6.10
2019-01-04T18:11:03.030Z,6.20
2019-01-04T18:16:08.068Z,6.20
2019-01-04T18:21:13.052Z,6.20
2019-01-04T18:26:24.216Z,6.30
2019-01-04T18:31:24.652Z,6.30
2019-01-04T18:36:29.650Z,6.30
2019-01-04T18:41:34.848Z,6.30
2019-01-04T18:46:39.899Z,6.30
2019-01-04T18:51:44.887Z,6.30
2019-01-04T18:56:50.445Z,6.40
2019-01-04T19:01:55.444Z,6.30
2019-01-04T19:07:00.443Z,6.30
2019-01-04T19:12:05.426Z,6.40
2019-01-04T19:17:10.529Z,6.30
2019-01-04T19:22:15.508Z,6.40
2019-01-04T19:27:21.272Z,6.40
2019-01-04T19:32:26.230Z,6.40
2019-01-04T19:37:31.213Z,6.30
2019-01-04T19:42:36.191Z,6.30
2019-01-04T19:47:41.497Z,6.30
2019-01-04T19:52:46.488Z,6.30
2019-01-04T19:57:51.557Z,6.20
2019-01-04T20:02:56.537Z,6.20
2019-01-04T20:08:54.800Z,6.20
2019-01-04T20:15:03.671Z,6.20
2019-01-04T20:20:28.632Z,6.20
2019-01-04T20:25:51.442Z,6.20
2019-01-04T20:31:27.639Z,6.10
2019-01-04T20:42:31.504Z,6.10
2019-01-04T20:47:55.630Z,6.10
2019-01-04T20:53:28.911Z,6.10
2019-01-04T20:58:58.550Z,6.20
2019-01-04T21:04:22.506Z,6.20
2019-01-04T21:09:51.866Z,6.30
2019-01-04T21:15:14.855Z,6.40
2019-01-04T21:20:41.553Z,6.40
2019-01-04T21:26:05.517Z,6.30
2019-01-04T21:31:38.587Z,6.40
2019-01-04T21:37:13.967Z,6.40
2019-01-04T21:42:36.599Z,6.50
2019-01-04T21:48:03.699Z,6.50
2019-01-04T21:53:33.442Z,6.50
2019-01-04T21:58:56.168Z,6.50
2019-01-04T22:04:28.907Z,6.40
2019-01-04T22:09:58.748Z,6.40
2019-01-04T22:15:21.639Z,6.40
2019-01-04T22:21:00.934Z,6.40
2019-01-04T22:26:22.717Z,6.50
2019-01-04T22:31:45.202Z,6.50
2019-01-04T22:37:14.925Z,6.50
2019-01-04T22:42:42.003Z,6.50
2019-01-04T22:48:03.229Z,6.50
2019-01-04T22:53:24.861Z,6.50
2019-01-04T22:58:57.750Z,6.50
2019-01-04T23:04:34.390Z,6.60
2019-01-04T23:10:07.579Z,6.60
2019-01-04T23:15:37.542Z,6.70
2019-01-04T23:21:04.652Z,6.70
2019-01-04T23:26:35.935Z,6.80
2019-01-04T23:31:55.543Z,6.90
2019-01-04T23:37:17.998Z,7.00
2019-01-04T23:42:40.703Z,7.00
2019-01-04T23:48:07.643Z,7.00
2019-01-04T23:53:34.515Z,7.00
2019-01-04T23:59:01.200Z,7.00
